createdAt,value
2023-05-21T00:02:39.339Z,82.89
2023-05-21T00:05:40.977Z,80.88
2023-05-21T00:08:42.943Z,82.42
2023-05-21T00:11:44.307Z,83.40
2023-05-21T00:14:46.082Z,84.17
2023-05-21T00:17:47.419Z,83.23
2023-05-21T00:20:48.794Z,82.03
2023-05-21T00:23:50.232Z,83.26
2023-05-21T00:26:51.578Z,83.17
2023-05-21T00:29:52.911Z,85.00
2023-05-21T00:32:54.689Z,84.60
2023-05-21T00:35:56.862Z,83.96
2023-05-21T00:38:58.227Z,85.36
2023-05-21T00:42:00.430Z,84.26
2023-05-21T00:45:03.800Z,84.67
2023-05-21T00:48:06.505Z,84.33
2023-05-21T00:51:07.992Z,84.40
2023-05-21T00:54:09.967Z,84.88
2023-05-21T00:57:11.321Z,87.19
2023-05-21T01:00:14.511Z,85.73
2023-05-21T01:03:16.474Z,86.10
2023-05-21T01:06:17.952Z,86.26
2023-05-21T01:09:19.815Z,86.68
2023-05-21T01:12:21.757Z,85.76
2023-05-21T01:15:23.540Z,87.34
2023-05-21T01:18:26.064Z,85.75
2023-05-21T01:21:28.698Z,87.49
2023-05-21T01:24:30.508Z,86.85
2023-05-21T01:27:31.858Z,87.66
2023-05-21T01:30:33.560Z,87.06
2023-05-21T01:33:38.947Z,88.06
2023-05-21T01:36:43.544Z,88.95
2023-05-21T01:39:47.964Z,89.24
2023-05-21T01:42:49.386Z,89.37
2023-05-21T01:45:52.350Z,88.84
2023-05-21T01:48:56.138Z,89.66
2023-05-21T01:51:57.491Z,89.17
2023-05-21T01:55:00.250Z,89.21
2023-05-21T01:58:02.640Z,91.36
2023-05-21T02:01:05.085Z,90.82
2023-05-21T02:04:06.447Z,91.68
2023-05-21T02:07:08.104Z,91.46
2023-05-21T02:10:09.708Z,92.50
2023-05-21T02:13:11.092Z,91.98
2023-05-21T02:16:14.723Z,91.31
2023-05-21T02:19:16.354Z,93.57
2023-05-21T02:22:17.811Z,92.52
2023-05-21T02:25:22.402Z,93.27
2023-05-21T02:28:23.908Z,95.33
2023-05-21T02:31:25.267Z,94.27
2023-05-21T02:34:26.842Z,93.73
2023-05-21T02:37:28.277Z,93.75
2023-05-21T02:40:29.623Z,99.06
2023-05-21T02:43:30.953Z,96.14
2023-05-21T02:46:32.323Z,96.39
2023-05-21T02:49:33.695Z,95.96
2023-05-21T02:52:35.447Z,96.68
2023-05-21T02:55:36.987Z,95.93
2023-05-21T02:58:38.469Z,95.94
2023-05-21T03:01:41.266Z,98.93
2023-05-21T03:04:46.245Z,100.00
2023-05-21T03:07:47.885Z,99.98
2023-05-21T03:10:49.247Z,100.00
2023-05-21T03:13:50.739Z,99.64
2023-05-21T03:16:52.110Z,98.78
2023-05-21T03:19:54.682Z,98.27
2023-05-21T03:22:56.125Z,99.11
2023-05-21T03:25:57.854Z,100.00
2023-05-21T03:28:59.210Z,100.00
2023-05-21T03:32:00.830Z,100.00
2023-05-21T03:35:02.200Z,99.10
2023-05-21T03:38:03.539Z,100.00
2023-05-21T03:41:04.978Z,100.00
2023-05-21T03:44:06.366Z,100.00
2023-05-21T03:47:07.703Z,100.00
2023-05-21T03:50:09.852Z,100.00
2023-05-21T03:53:11.193Z,100.00
2023-05-21T03:56:12.541Z,100.00
2023-05-21T03:59:13.905Z,100.00
2023-05-21T04:02:15.303Z,100.00
2023-05-21T04:05:16.761Z,100.00
2023-05-21T04:08:18.106Z,100.00
2023-05-21T04:11:19.457Z,100.00
2023-05-21T04:14:21.445Z,100.00
2023-05-21T04:17:22.879Z,100.00
2023-05-21T04:20:24.270Z,100.00
2023-05-21T04:23:25.884Z,100.00
2023-05-21T04:26:28.010Z,100.00
2023-05-21T04:29:31.308Z,100.00
2023-05-21T04:32:34.781Z,100.00
2023-05-21T04:35:36.546Z,100.00
2023-05-21T04:38:39.820Z,100.00
2023-05-21T04:41:41.174Z,100.00
2023-05-21T04:44:44.346Z,100.00
2023-05-21T04:47:46.203Z,100.00
2023-05-21T04:50:47.611Z,100.00
2023-05-21T04:53:49.878Z,100.00
2023-05-21T04:56:51.234Z,100.00
2023-05-21T04:59:52.746Z,100.00
2023-05-21T05:02:54.218Z,100.00
2023-05-21T05:05:56.315Z,100.00
2023-05-21T05:08:57.653Z,100.00
2023-05-21T05:11:59.074Z,100.00
2023-05-21T05:15:00.610Z,100.00
2023-05-21T05:18:02.017Z,100.00
2023-05-21T05:21:03.516Z,100.00
2023-05-21T05:24:05.161Z,100.00
2023-05-21T05:27:06.541Z,100.00
2023-05-21T05:30:08.174Z,100.00
2023-05-21T05:33:09.501Z,100.00
2023-05-21T05:36:10.884Z,100.00
2023-05-21T05:39:12.274Z,100.00
2023-05-21T05:42:13.887Z,100.00
2023-05-21T05:45:15.535Z,100.00
2023-05-21T05:48:16.898Z,100.00
2023-05-21T05:51:18.231Z,100.00
2023-05-21T05:54:19.566Z,100.00
2023-05-21T05:57:21.136Z,100.00
2023-05-21T06:00:22.458Z,100.00
2023-05-21T06:03:23.966Z,100.00
2023-05-21T06:06:25.396Z,100.00
2023-05-21T06:09:26.747Z,100.00
2023-05-21T06:12:28.125Z,100.00
2023-05-21T06:15:30.165Z,100.00
2023-05-21T06:18:31.514Z,100.00
2023-05-21T06:21:32.893Z,100.00
2023-05-21T06:24:34.229Z,98.27
2023-05-21T06:27:35.798Z,98.47
2023-05-21T06:30:37.161Z,99.84
2023-05-21T06:33:38.566Z,97.76
2023-05-21T06:36:39.989Z,97.00
2023-05-21T06:39:41.386Z,90.07
2023-05-21T06:42:42.708Z,91.68
2023-05-21T06:45:44.087Z,91.73
2023-05-21T06:48:46.370Z,91.62
2023-05-21T06:51:47.801Z,90.97
2023-05-21T06:54:49.220Z,87.14
2023-05-21T06:57:50.674Z,88.43
2023-05-21T07:00:52.046Z,89.10
2023-05-21T07:03:54.404Z,91.36
2023-05-21T07:06:55.831Z,89.07
2023-05-21T07:09:57.203Z,85.64
2023-05-21T07:12:58.621Z,82.63
2023-05-21T07:15:59.957Z,83.58
2023-05-21T07:19:01.370Z,86.23
2023-05-21T07:22:02.780Z,85.58
2023-05-21T07:25:04.338Z,84.93
2023-05-21T07:28:06.710Z,84.56
2023-05-21T07:31:08.511Z,82.78
2023-05-21T07:34:09.885Z,80.85
2023-05-21T07:37:11.218Z,83.73
2023-05-21T07:40:13.075Z,81.32
2023-05-21T07:43:17.322Z,79.60
2023-05-21T07:46:18.781Z,80.16
2023-05-21T07:49:20.182Z,79.76
2023-05-21T07:52:21.560Z,78.10
2023-05-21T07:55:22.923Z,80.10
2023-05-21T07:58:24.300Z,80.61
2023-05-21T08:01:28.184Z,77.92
2023-05-21T08:04:29.770Z,79.86
2023-05-21T08:07:32.451Z,75.52
2023-05-21T08:10:33.833Z,78.95
2023-05-21T08:13:35.186Z,75.43
2023-05-21T08:16:36.809Z,73.83
2023-05-21T08:19:38.364Z,73.13
2023-05-21T08:22:39.926Z,77.14
2023-05-21T08:25:41.272Z,74.97
2023-05-21T08:28:43.062Z,75.94
2023-05-21T08:31:46.153Z,70.86
2023-05-21T08:34:47.527Z,74.17
2023-05-21T08:37:48.950Z,74.00
2023-05-21T08:40:51.302Z,74.45
2023-05-21T08:43:56.048Z,76.65
2023-05-21T08:46:59.228Z,72.80
2023-05-21T08:50:01.009Z,73.68
2023-05-21T08:53:05.615Z,74.07
2023-05-21T08:56:15.294Z,77.57
2023-05-21T08:59:17.080Z,73.22
2023-05-21T09:02:20.040Z,73.57
2023-05-21T09:05:22.185Z,69.25
2023-05-21T09:08:31.302Z,76.18
2023-05-21T09:11:32.761Z,72.64
2023-05-21T09:14:35.484Z,73.21
2023-05-21T09:17:36.967Z,74.33
2023-05-21T09:20:38.409Z,70.40
2023-05-21T09:23:39.752Z,71.44
2023-05-21T09:26:43.968Z,70.47
2023-05-21T09:29:45.564Z,66.73
2023-05-21T09:32:52.008Z,65.61
2023-05-21T09:35:53.539Z,67.19
2023-05-21T09:38:55.008Z,64.51
2023-05-21T09:41:57.103Z,64.38
2023-05-21T09:44:59.129Z,64.68
2023-05-21T09:48:00.565Z,61.76
2023-05-21T09:51:09.130Z,66.41
2023-05-21T09:54:10.831Z,60.68
2023-05-21T09:57:14.131Z,62.33
2023-05-21T10:00:22.684Z,60.47
2023-05-21T10:03:26.906Z,62.01
2023-05-21T10:06:33.631Z,64.28
2023-05-21T10:09:35.032Z,61.98
2023-05-21T10:12:37.015Z,63.23
2023-05-21T10:15:41.289Z,65.16
2023-05-21T10:18:45.204Z,64.50
2023-05-21T10:21:47.305Z,66.36
2023-05-21T10:24:50.291Z,67.29
2023-05-21T10:27:53.590Z,64.38
2023-05-21T10:30:55.192Z,67.91
2023-05-21T10:33:56.678Z,67.83
2023-05-21T10:36:59.645Z,66.50
2023-05-21T10:40:01.434Z,66.89
2023-05-21T10:43:21.421Z,67.42
2023-05-21T10:46:36.552Z,69.04
2023-05-21T10:49:56.439Z,64.17
2023-05-21T10:53:17.978Z,66.73
2023-05-21T10:56:25.394Z,68.46
2023-05-21T10:59:35.892Z,63.76
2023-05-21T11:02:37.587Z,65.21
2023-05-21T11:05:42.917Z,63.25
2023-05-21T11:08:47.793Z,64.34
2023-05-21T11:11:52.852Z,65.15
2023-05-21T11:14:57.825Z,61.24
2023-05-21T11:17:59.258Z,67.27
2023-05-21T11:21:07.660Z,62.30
2023-05-21T11:24:10.878Z,61.95
2023-05-21T11:27:12.554Z,62.25
2023-05-21T11:30:19.538Z,59.37
2023-05-21T11:33:21.062Z,59.73
2023-05-21T11:36:22.768Z,58.47
2023-05-21T11:39:25.425Z,59.44
2023-05-21T11:42:30.940Z,58.37
2023-05-21T11:45:32.654Z,59.89
2023-05-21T11:48:34.527Z,55.78
2023-05-21T11:51:36.358Z,56.33
2023-05-21T11:54:46.452Z,54.57
2023-05-21T11:57:48.230Z,53.43
2023-05-21T12:00:50.831Z,51.85
2023-05-21T12:03:52.236Z,52.37
2023-05-21T12:06:53.620Z,51.20
2023-05-21T12:09:55.148Z,49.95
2023-05-21T12:12:57.503Z,46.65
2023-05-21T12:15:59.262Z,48.68
2023-05-21T12:19:00.775Z,46.61
2023-05-21T12:22:03.084Z,44.76
2023-05-21T12:25:04.642Z,44.68
2023-05-21T12:28:06.142Z,45.92
2023-05-21T12:31:07.511Z,44.08
2023-05-21T12:34:09.254Z,42.03
2023-05-21T12:37:35.658Z,41.91
2023-05-21T12:40:38.320Z,41.86
2023-05-21T12:43:41.732Z,42.63
2023-05-21T12:46:43.128Z,41.49
2023-05-21T12:49:46.367Z,43.28
2023-05-21T12:52:47.829Z,42.80
2023-05-21T12:55:49.269Z,42.27
2023-05-21T12:58:50.773Z,42.10
2023-05-21T13:01:52.290Z,40.35
2023-05-21T13:04:58.131Z,40.12
2023-05-21T13:07:59.440Z,40.01
2023-05-21T13:11:04.109Z,41.36
2023-05-21T13:14:05.587Z,40.84
2023-05-21T13:17:07.076Z,40.09
2023-05-21T13:20:08.872Z,38.43
2023-05-21T13:26:12.024Z,38.96
2023-05-21T13:29:14.904Z,39.61
2023-05-21T13:32:16.287Z,39.80
2023-05-21T13:35:17.756Z,40.07
2023-05-21T13:38:19.188Z,40.16
2023-05-21T13:41:21.298Z,37.82
2023-05-21T13:44:22.707Z,37.59
2023-05-21T13:47:24.467Z,38.69
2023-05-21T13:50:25.864Z,38.11
2023-05-21T13:53:27.301Z,38.35
2023-05-21T13:56:28.657Z,38.28
2023-05-21T13:59:32.581Z,38.24
2023-05-21T14:02:35.182Z,37.40
2023-05-21T14:05:36.680Z,37.94
2023-05-21T14:08:38.060Z,36.10
2023-05-21T14:11:39.431Z,37.15
2023-05-21T14:14:41.428Z,37.42
2023-05-21T14:17:43.000Z,38.59
2023-05-21T14:20:44.345Z,38.05
2023-05-21T14:23:46.757Z,35.64
2023-05-21T14:26:48.334Z,35.54
2023-05-21T14:29:49.828Z,33.93
2023-05-21T14:32:51.359Z,33.19
2023-05-21T14:35:52.721Z,33.00
2023-05-21T14:38:54.135Z,33.49
2023-05-21T14:41:55.473Z,33.38
2023-05-21T14:44:56.870Z,33.66
2023-05-21T14:47:58.308Z,33.50
2023-05-21T14:50:59.646Z,34.04
2023-05-21T14:54:01.030Z,34.79
2023-05-21T14:57:02.358Z,35.08
2023-05-21T15:00:04.023Z,35.02
2023-05-21T15:03:05.639Z,33.73
2023-05-21T15:06:07.059Z,34.48
2023-05-21T15:09:08.451Z,35.02
2023-05-21T15:12:09.787Z,33.20
2023-05-21T15:15:12.284Z,34.70
2023-05-21T15:18:13.986Z,33.43
2023-05-21T15:21:15.375Z,35.18
2023-05-21T15:24:16.780Z,34.75
2023-05-21T15:27:18.137Z,34.04
2023-05-21T15:30:22.395Z,32.82
2023-05-21T15:33:23.721Z,33.99
2023-05-21T15:36:26.792Z,31.93
2023-05-21T15:39:28.449Z,33.62
2023-05-21T15:42:31.646Z,35.50
2023-05-21T15:45:36.305Z,33.74
2023-05-21T15:48:37.946Z,34.14
2023-05-21T15:51:40.420Z,34.83
2023-05-21T15:54:41.859Z,35.93
2023-05-21T15:57:43.213Z,36.35
2023-05-21T16:00:46.814Z,34.52
2023-05-21T16:03:48.296Z,36.00
2023-05-21T16:06:49.685Z,36.77
2023-05-21T16:09:51.090Z,35.94
2023-05-21T16:12:52.440Z,36.32
2023-05-21T16:15:53.849Z,36.46
2023-05-21T16:18:55.237Z,37.56
2023-05-21T16:21:56.636Z,37.77
2023-05-21T16:24:58.074Z,36.72
2023-05-21T16:27:59.505Z,36.81
2023-05-21T16:31:01.391Z,36.70
2023-05-21T16:34:02.776Z,38.33
2023-05-21T16:37:04.299Z,38.55
2023-05-21T16:40:06.367Z,37.73
2023-05-21T16:43:08.453Z,38.32
2023-05-21T16:46:10.071Z,38.70
2023-05-21T16:49:11.417Z,38.40
2023-05-21T16:52:12.746Z,38.93
2023-05-21T16:55:14.167Z,39.32
2023-05-21T16:58:15.734Z,39.25
2023-05-21T17:01:17.316Z,39.16
2023-05-21T17:04:18.752Z,38.13
2023-05-21T17:07:22.738Z,39.40
2023-05-21T17:10:27.635Z,39.09
2023-05-21T17:13:29.097Z,39.29
2023-05-21T17:16:30.562Z,38.59
2023-05-21T17:19:32.088Z,38.70
2023-05-21T17:22:33.686Z,39.63
2023-05-21T17:25:35.114Z,39.85
2023-05-21T17:28:36.663Z,39.59
2023-05-21T17:31:38.055Z,40.00
2023-05-21T17:34:39.425Z,40.91
2023-05-21T17:37:40.848Z,40.38
2023-05-21T17:40:42.181Z,41.34
2023-05-21T17:43:43.690Z,41.27
2023-05-21T17:46:45.578Z,41.82
2023-05-21T17:49:47.054Z,42.44
2023-05-21T17:52:48.382Z,42.03
2023-05-21T17:55:49.817Z,43.26
2023-05-21T17:58:51.260Z,44.83
2023-05-21T18:01:54.434Z,45.95
2023-05-21T18:04:55.963Z,44.80
2023-05-21T18:07:57.374Z,45.36
2023-05-21T18:11:01.540Z,46.28
2023-05-21T18:14:04.871Z,47.33
2023-05-21T18:17:06.881Z,48.46
2023-05-21T18:20:08.451Z,47.47
2023-05-21T18:23:11.520Z,47.64
2023-05-21T18:26:12.991Z,47.80
2023-05-21T18:29:14.960Z,47.49
2023-05-21T18:32:16.694Z,47.17
2023-05-21T18:35:18.213Z,48.24
2023-05-21T18:38:19.574Z,48.51
2023-05-21T18:41:22.363Z,49.44
2023-05-21T18:44:23.849Z,48.90
2023-05-21T18:47:25.309Z,48.36
2023-05-21T18:50:26.675Z,47.98
2023-05-21T18:53:28.077Z,49.20
2023-05-21T18:56:29.416Z,49.51
2023-05-21T18:59:31.366Z,49.95
2023-05-21T19:02:32.776Z,51.32
2023-05-21T19:05:34.165Z,51.63
2023-05-21T19:08:35.587Z,51.81
2023-05-21T19:11:37.470Z,53.23
2023-05-21T19:14:38.882Z,53.40
2023-05-21T19:17:40.450Z,54.11
2023-05-21T19:20:41.805Z,53.40
2023-05-21T19:23:52.802Z,54.71
2023-05-21T19:26:55.295Z,55.59
2023-05-21T19:29:56.690Z,55.44
2023-05-21T19:32:58.210Z,55.25
2023-05-21T19:35:59.564Z,54.53
2023-05-21T19:39:01.031Z,54.70
2023-05-21T19:42:02.449Z,55.40
2023-05-21T19:45:06.801Z,55.82
2023-05-21T19:48:08.227Z,54.80
2023-05-21T19:51:09.640Z,55.05
2023-05-21T19:54:11.241Z,55.53
2023-05-21T19:57:13.401Z,55.70
2023-05-21T20:00:15.062Z,55.96
2023-05-21T20:03:19.971Z,57.12
2023-05-21T20:06:21.418Z,56.89
2023-05-21T20:09:22.834Z,58.26
2023-05-21T20:12:24.376Z,59.18
2023-05-21T20:15:25.717Z,60.28
2023-05-21T20:18:27.068Z,60.82
2023-05-21T20:21:29.183Z,59.74
2023-05-21T20:24:30.733Z,60.12
2023-05-21T20:27:32.213Z,60.48
2023-05-21T20:30:34.711Z,62.82
2023-05-21T20:33:41.030Z,62.81
2023-05-21T20:36:43.444Z,63.24
2023-05-21T20:39:45.214Z,64.16
2023-05-21T20:42:48.320Z,63.82
2023-05-21T20:45:50.331Z,63.14
2023-05-21T20:48:52.949Z,63.53
2023-05-21T20:51:54.373Z,63.70
2023-05-21T20:54:56.583Z,64.32
2023-05-21T20:57:58.060Z,64.73
2023-05-21T21:01:01.749Z,65.89
2023-05-21T21:04:03.557Z,66.45
2023-05-21T21:07:07.922Z,66.85
2023-05-21T21:10:09.522Z,67.62
2023-05-21T21:13:10.931Z,68.55
2023-05-21T21:16:12.475Z,67.78
2023-05-21T21:19:13.931Z,66.61
2023-05-21T21:22:15.682Z,67.50
2023-05-21T21:25:17.055Z,67.44
2023-05-21T21:28:18.536Z,67.72
2023-05-21T21:31:19.988Z,68.95
2023-05-21T21:34:23.416Z,69.32
2023-05-21T21:37:25.279Z,69.80
2023-05-21T21:40:27.347Z,70.59
2023-05-21T21:43:28.856Z,71.41
2023-05-21T21:46:30.418Z,71.48
2023-05-21T21:49:31.935Z,71.76
2023-05-21T21:52:33.401Z,71.62
2023-05-21T21:55:34.894Z,72.12
2023-05-21T21:58:36.247Z,72.39
2023-05-21T22:01:37.644Z,73.08
2023-05-21T22:04:39.125Z,72.73
2023-05-21T22:07:46.533Z,73.17
2023-05-21T22:10:48.072Z,72.46
2023-05-21T22:13:49.432Z,72.46
2023-05-21T22:16:53.080Z,72.64
2023-05-21T22:19:54.504Z,73.06
2023-05-21T22:22:59.333Z,72.62
2023-05-21T22:26:00.875Z,73.82
2023-05-21T22:29:02.274Z,75.17
2023-05-21T22:32:03.800Z,75.88
2023-05-21T22:35:05.703Z,75.99
2023-05-21T22:38:07.056Z,76.10
2023-05-21T22:41:08.586Z,75.33
2023-05-21T22:44:10.070Z,75.79
2023-05-21T22:47:11.440Z,77.39
2023-05-21T22:50:12.918Z,77.00
2023-05-21T22:53:14.335Z,76.53
2023-05-21T22:56:15.724Z,76.94
2023-05-21T22:59:17.091Z,76.38
2023-05-21T23:02:18.441Z,76.65
2023-05-21T23:05:19.937Z,75.84
2023-05-21T23:08:21.308Z,76.07
2023-05-21T23:11:22.699Z,77.12
2023-05-21T23:14:24.028Z,78.92
2023-05-21T23:17:25.442Z,81.41
2023-05-21T23:20:27.849Z,82.36
2023-05-21T23:23:29.276Z,82.16
2023-05-21T23:26:30.725Z,81.96
2023-05-21T23:29:32.066Z,80.46
2023-05-21T23:32:33.529Z,80.54
2023-05-21T23:35:35.937Z,80.76
2023-05-21T23:38:37.283Z,80.97
2023-05-21T23:41:38.696Z,82.00
2023-05-21T23:44:40.306Z,83.26
2023-05-21T23:47:41.654Z,84.78
2023-05-21T23:50:42.994Z,85.48
2023-05-21T23:53:44.368Z,85.58
2023-05-21T23:56:46.374Z,85.41
2023-05-21T23:59:47.782Z,86.72
